Time;durP1;ratioP1;P1;durP2;ratioP2;P2;SDS_P1;SDS_P2;PMS_P1;PMS_P2;Temp;Humidity;BMP_temperature;BMP_pressure;BME280_temperature;BME280_humidity;BME280_pressure;Samples;Min_cycle;Max_cycle;Signal;HPM_P1;HPM_P2
2021/07/21 00:00:51;;;;;;;11.18;4.55;;;24.80;89.60;;;;;;5034327;28;20107;-75
2021/07/21 00:03:22;;;;;;;5.30;4.07;;;24.70;89.80;;;;;;5063831;28;20052;-75
2021/07/21 00:05:48;;;;;;;6.70;4.55;;;24.70;89.80;;;;;;5074015;28;20028;-74
2021/07/21 00:08:14;;;;;;;5.78;3.67;;;24.70;90.00;;;;;;5074072;28;20050;-75
2021/07/21 00:10:40;;;;;;;5.43;4.20;;;24.70;90.10;;;;;;5073816;28;20028;-75
2021/07/21 00:16:03;;;;;;;5.05;4.05;;;24.60;90.30;;;;;;5033986;28;20084;-77
2021/07/21 00:18:45;;;;;;;9.50;4.18;;;24.60;90.30;;;;;;5032291;28;20029;-75
2021/07/21 00:21:13;;;;;;;7.07;3.90;;;24.60;90.30;;;;;;5033830;28;20393;-74
2021/07/21 00:23:39;;;;;;;10.63;4.25;;;24.60;90.30;;;;;;5033903;28;20018;-75
2021/07/21 00:26:05;;;;;;;8.07;4.00;;;24.60;90.20;;;;;;5033825;28;20021;-74
2021/07/21 00:28:31;;;;;;;7.35;4.05;;;24.60;90.30;;;;;;5033766;28;20370;-75
2021/07/21 00:30:57;;;;;;;5.00;3.50;;;24.60;90.40;;;;;;5033690;28;20533;-75
2021/07/21 00:33:23;;;;;;;9.07;5.00;;;24.60;90.50;;;;;;5043976;28;20147;-75
2021/07/21 00:35:49;;;;;;;4.45;3.88;;;24.70;90.30;;;;;;5053595;28;20044;-75
2021/07/21 00:38:15;;;;;;;8.35;3.95;;;24.70;90.50;;;;;;5053601;28;20028;-75
2021/07/21 00:40:41;;;;;;;5.07;3.92;;;24.70;90.50;;;;;;5053343;28;20025;-75
2021/07/21 00:43:07;;;;;;;7.28;4.38;;;24.70;90.10;;;;;;5053164;28;20024;-75
2021/07/21 00:45:33;;;;;;;6.10;3.78;;;24.80;90.00;;;;;;5035258;28;20025;-75
2021/07/21 00:47:59;;;;;;;8.35;4.47;;;24.80;90.00;;;;;;5053333;28;20380;-75
2021/07/21 00:50:25;;;;;;;10.35;4.07;;;24.80;89.60;;;;;;5035480;28;20037;-75
2021/07/21 00:52:52;;;;;;;5.57;3.72;;;24.90;89.60;;;;;;5052600;28;20028;-75
2021/07/21 00:55:20;;;;;;;7.50;3.83;;;24.90;89.70;;;;;;5053185;28;20029;-75
2021/07/21 00:57:46;;;;;;;5.03;3.88;;;24.90;89.20;;;;;;5053217;28;20100;-75
2021/07/21 01:00:17;;;;;;;7.43;4.00;;;24.90;88.90;;;;;;5053127;28;20087;-75
2021/07/21 01:02:45;;;;;;;9.60;3.95;;;24.90;88.90;;;;;;5052726;28;20037;-75
2021/07/21 01:05:17;;;;;;;6.90;3.53;;;24.90;88.60;;;;;;5052733;28;20425;-75
2021/07/21 01:07:49;;;;;;;6.18;3.92;;;24.90;88.60;;;;;;5052971;28;20112;-75
2021/07/21 01:10:17;;;;;;;7.35;3.92;;;24.90;89.20;;;;;;5035055;28;20029;-75
2021/07/21 01:12:48;;;;;;;8.23;4.18;;;24.80;89.30;;;;;;5052543;28;20025;-76
2021/07/21 01:15:17;;;;;;;5.38;3.83;;;24.80;89.00;;;;;;5052785;28;20040;-75
2021/07/21 01:17:54;;;;;;;4.28;3.85;;;24.80;88.90;;;;;;5052976;28;20025;-75
2021/07/21 01:20:39;;;;;;;4.50;3.70;;;24.80;88.90;;;;;;5052659;28;20053;-75
2021/07/21 01:23:41;;;;;;;6.80;4.05;;;24.80;88.30;;;;;;5052430;28;20040;-75
2021/07/21 01:26:17;;;;;;;8.52;3.70;;;24.80;88.60;;;;;;5034731;28;20551;-75
2021/07/21 01:28:46;;;;;;;6.43;3.78;;;24.80;88.30;;;;;;5048740;28;20348;-75
2021/07/21 01:31:17;;;;;;;11.43;3.85;;;24.80;88.20;;;;;;5032748;28;20052;-75
2021/07/21 01:33:45;;;;;;;8.07;4.40;;;24.80;88.20;;;;;;5059055;28;20483;-75
2021/07/21 01:36:25;;;;;;;4.28;3.83;;;24.80;88.10;;;;;;5054657;28;20052;-75
2021/07/21 01:38:54;;;;;;;4.93;4.07;;;24.70;88.20;;;;;;5072484;28;20033;-75
2021/07/21 01:41:28;;;;;;;4.60;3.63;;;24.70;88.30;;;;;;5046920;28;20078;-75
2021/07/21 01:44:21;;;;;;;7.10;3.92;;;24.70;88.20;;;;;;5052705;28;20476;-74
2021/07/21 01:46:53;;;;;;;4.63;3.83;;;24.70;88.00;;;;;;5042117;28;20044;-75
2021/07/21 01:49:19;;;;;;;;;;;24.70;87.70;;;;;;5052903;28;20026;-75
2021/07/21 01:51:46;;;;;;;7.05;4.05;;;24.70;87.30;;;;;;5034409;28;20323;-75
2021/07/21 01:54:14;;;;;;;7.82;3.72;;;24.70;87.10;;;;;;5052373;28;20112;-75
2021/07/21 01:56:40;;;;;;;7.78;4.63;;;24.70;87.60;;;;;;5052430;28;20029;-75
2021/07/21 01:59:07;;;;;;;5.18;3.60;;;24.70;87.60;;;;;;5052477;28;20021;-75
2021/07/21 02:01:34;;;;;;;5.13;4.32;;;24.70;87.30;;;;;;5034572;28;20029;-75
2021/07/21 02:04:02;;;;;;;4.80;3.90;;;24.60;87.50;;;;;;5052133;28;20480;-75
2021/07/21 02:06:31;;;;;;;5.63;4.20;;;24.60;87.60;;;;;;5052415;28;20638;-75
2021/07/21 02:08:58;;;;;;;6.75;4.07;;;24.60;87.00;;;;;;5052327;28;20021;-75
2021/07/21 02:11:25;;;;;;;6.15;4.35;;;24.60;87.80;;;;;;5052366;28;20017;-75
2021/07/21 02:13:55;;;;;;;4.45;4.03;;;24.60;88.40;;;;;;5052241;28;20074;-75
2021/07/21 02:16:21;;;;;;;6.05;3.90;;;24.50;88.50;;;;;;5052024;28;20031;-75
2021/07/21 02:18:48;;;;;;;10.27;3.80;;;24.50;88.60;;;;;;5034563;28;20025;-75
2021/07/21 02:21:15;;;;;;;7.40;3.85;;;24.50;88.60;;;;;;5034014;28;20057;-75
2021/07/21 02:23:42;;;;;;;7.60;4.13;;;24.50;88.30;;;;;;5051883;28;20132;-75
2021/07/21 02:26:08;;;;;;;5.25;3.55;;;24.40;88.80;;;;;;5052175;28;20503;-75
2021/07/21 02:28:34;;;;;;;6.10;3.70;;;24.30;89.30;;;;;;5052180;28;20052;-74
2021/07/21 02:31:05;;;;;;;9.73;4.05;;;24.20;89.60;;;;;;5052060;28;20013;-75
2021/07/21 02:33:41;;;;;;;7.35;3.90;;;24.20;89.50;;;;;;5051854;28;20544;-75
2021/07/21 02:36:06;;;;;;;11.20;4.07;;;24.30;89.40;;;;;;5052047;28;20056;-75
2021/07/21 02:38:32;;;;;;;5.47;3.33;;;24.30;89.40;;;;;;5051988;28;20110;-75
2021/07/21 02:40:58;;;;;;;5.50;3.80;;;24.40;89.30;;;;;;5054647;28;20383;-75
2021/07/21 02:43:24;;;;;;;4.45;3.25;;;24.40;89.10;;;;;;5055483;28;20032;-75
2021/07/21 02:45:49;;;;;;;5.68;3.70;;;24.30;88.90;;;;;;5055650;28;20021;-74
2021/07/21 02:48:15;;;;;;;6.50;3.92;;;24.30;88.90;;;;;;5055520;28;20118;-75
2021/07/21 02:50:43;;;;;;;6.25;3.83;;;24.30;88.80;;;;;;5037596;28;20070;-75
2021/07/21 02:53:19;;;;;;;8.25;3.47;;;24.20;88.60;;;;;;5046062;28;20060;-75
2021/07/21 02:55:51;;;;;;;5.15;3.75;;;24.30;88.80;;;;;;5035585;28;20120;-75
2021/07/21 02:58:20;;;;;;;;;;;24.20;88.90;;;;;;5036000;28;20454;-75
2021/07/21 03:00:47;;;;;;;4.60;3.75;;;24.20;89.10;;;;;;5039606;28;19912;-75
2021/07/21 03:03:17;;;;;;;7.38;3.90;;;24.20;88.90;;;;;;5055018;28;20033;-75
2021/07/21 03:05:45;;;;;;;6.75;3.92;;;24.30;88.80;;;;;;5037069;28;20112;-75
2021/07/21 03:08:12;;;;;;;4.10;3.47;;;24.20;88.90;;;;;;5055299;28;20025;-75
2021/07/21 03:10:42;;;;;;;4.85;3.50;;;24.20;89.20;;;;;;5055265;28;20017;-75
2021/07/21 03:13:30;;;;;;;6.68;4.47;;;24.20;89.10;;;;;;5054884;28;20036;-75
2021/07/21 03:15:56;;;;;;;10.35;4.65;;;24.20;89.00;;;;;;5054964;28;20064;-75
2021/07/21 03:18:27;;;;;;;4.50;3.80;;;24.20;88.90;;;;;;5055155;28;20021;-75
2021/07/21 03:20:55;;;;;;;5.43;3.50;;;24.20;88.90;;;;;;5054718;28;20087;-75
2021/07/21 03:23:26;;;;;;;12.23;4.07;;;24.20;88.60;;;;;;5036446;28;20017;-75
2021/07/21 03:25:55;;;;;;;5.28;3.53;;;24.30;88.70;;;;;;5054847;28;20426;-75
2021/07/21 03:28:24;;;;;;;8.10;3.60;;;24.20;88.70;;;;;;5054939;28;20472;-75
2021/07/21 03:30:50;;;;;;;6.07;3.50;;;24.20;89.00;;;;;;5036575;28;20033;-75
2021/07/21 03:33:18;;;;;;;7.28;3.78;;;24.20;89.00;;;;;;5054478;28;20029;-75
2021/07/21 03:35:46;;;;;;;5.53;3.83;;;24.20;89.10;;;;;;5036519;28;20036;-74
2021/07/21 03:38:13;;;;;;;5.32;3.92;;;24.20;89.30;;;;;;5054712;28;20029;-75
2021/07/21 03:40:40;;;;;;;5.43;3.50;;;24.20;89.40;;;;;;5036699;28;20446;-75
2021/07/21 03:43:07;;;;;;;5.00;3.85;;;24.20;89.30;;;;;;5054328;28;20021;-74
2021/07/21 03:45:34;;;;;;;5.20;4.28;;;24.10;89.40;;;;;;5054120;28;20071;-75
2021/07/21 03:48:00;;;;;;;6.55;4.03;;;24.10;89.50;;;;;;5054486;28;20021;-75
2021/07/21 03:50:27;;;;;;;8.98;3.80;;;24.20;89.30;;;;;;5054271;28;20025;-75
2021/07/21 03:52:54;;;;;;;4.55;3.70;;;24.20;89.40;;;;;;5053139;28;20126;-75
2021/07/21 03:55:22;;;;;;;5.57;3.95;;;24.10;89.50;;;;;;5054198;28;20013;-75
2021/07/21 03:57:48;;;;;;;5.80;3.53;;;24.20;89.50;;;;;;5042156;28;20060;-75
2021/07/21 04:00:17;;;;;;;5.35;3.88;;;24.20;89.50;;;;;;5034308;28;20053;-75
2021/07/21 04:02:46;;;;;;;9.13;4.45;;;24.20;89.30;;;;;;5058546;28;20024;-74
2021/07/21 04:05:14;;;;;;;4.45;4.00;;;24.20;89.20;;;;;;5074063;28;20091;-75
2021/07/21 04:07:42;;;;;;;9.82;4.28;;;24.20;90.00;;;;;;5074141;28;20422;-75
2021/07/21 04:10:09;;;;;;;5.72;3.75;;;24.20;90.10;;;;;;5074092;28;20082;-75
2021/07/21 04:12:37;;;;;;;10.85;3.60;;;24.20;90.00;;;;;;5073742;28;20028;-75
2021/07/21 04:15:03;;;;;;;5.95;3.20;;;24.10;89.40;;;;;;5053951;28;20103;-75
2021/07/21 04:17:30;;;;;;;6.80;4.00;;;24.10;90.10;;;;;;5053902;28;20044;-75
2021/07/21 04:19:56;;;;;;;5.68;3.45;;;24.10;89.30;;;;;;5036146;28;20044;-75
2021/07/21 04:22:23;;;;;;;7.00;3.38;;;24.10;89.40;;;;;;5053710;28;20082;-75
2021/07/21 04:24:50;;;;;;;7.50;3.60;;;24.10;89.70;;;;;;5054062;28;20052;-75
2021/07/21 04:27:16;;;;;;;4.50;3.83;;;24.10;89.70;;;;;;5053832;28;20103;-75
2021/07/21 04:29:46;;;;;;;4.10;3.25;;;24.10;89.90;;;;;;5053658;28;20124;-77
2021/07/21 04:32:15;;;;;;;8.32;4.20;;;24.10;89.60;;;;;;5054064;28;20499;-77
2021/07/21 04:34:44;;;;;;;8.30;4.10;;;24.10;89.40;;;;;;5073573;28;20028;-77
2021/07/21 04:37:11;;;;;;;4.22;3.83;;;24.10;89.90;;;;;;5073504;28;20029;-75
2021/07/21 04:39:37;;;;;;;8.70;4.05;;;24.00;89.90;;;;;;5073389;28;20025;-75
2021/07/21 04:42:04;;;;;;;5.32;3.60;;;24.00;90.10;;;;;;5073130;28;20032;-75
2021/07/21 04:44:30;;;;;;;7.40;3.83;;;24.00;90.00;;;;;;5073608;28;20414;-74
2021/07/21 04:46:58;;;;;;;5.60;4.00;;;24.10;90.00;;;;;;5063429;28;20461;-75
2021/07/21 04:49:25;;;;;;;11.18;3.85;;;24.10;90.00;;;;;;5053308;28;20025;-75
2021/07/21 04:51:56;;;;;;;8.13;3.30;;;24.10;90.00;;;;;;5053056;28;20473;-75
2021/07/21 04:54:22;;;;;;;5.65;4.07;;;24.10;90.10;;;;;;5053175;28;20105;-75
2021/07/21 04:56:48;;;;;;;11.98;4.30;;;24.10;90.10;;;;;;5034914;28;20114;-75
2021/07/21 04:59:13;;;;;;;7.40;4.00;;;24.10;90.20;;;;;;5053262;28;20017;-75
2021/07/21 05:01:39;;;;;;;5.72;3.20;;;24.10;90.20;;;;;;5040246;28;20031;-74
2021/07/21 05:04:06;;;;;;;5.15;3.83;;;24.10;90.30;;;;;;5056112;28;20109;-75
2021/07/21 05:06:32;;;;;;;6.55;3.30;;;24.10;90.40;;;;;;5052767;28;20094;-75
2021/07/21 05:08:58;;;;;;;8.77;3.70;;;24.10;90.50;;;;;;5052828;28;20033;-74
2021/07/21 05:11:24;;;;;;;8.60;3.85;;;24.10;90.60;;;;;;5052878;28;20491;-75
2021/07/21 05:13:50;;;;;;;11.07;4.07;;;24.10;90.60;;;;;;5051872;28;20025;-75
2021/07/21 05:16:16;;;;;;;5.05;3.25;;;24.10;90.60;;;;;;5037292;28;20032;-75
2021/07/21 05:18:42;;;;;;;6.15;3.53;;;24.10;90.80;;;;;;5043267;28;20029;-75
2021/07/21 05:21:09;;;;;;;10.80;3.85;;;24.10;91.00;;;;;;5051679;28;20053;-75
2021/07/21 05:23:35;;;;;;;13.02;4.35;;;24.10;91.10;;;;;;5051455;28;20646;-75
2021/07/21 05:26:02;;;;;;;5.00;4.15;;;24.10;91.10;;;;;;5051286;28;20109;-75
2021/07/21 05:28:28;;;;;;;8.57;4.20;;;24.10;91.10;;;;;;5051741;28;20036;-74
2021/07/21 05:30:54;;;;;;;4.78;3.67;;;24.10;91.20;;;;;;5051685;28;20024;-75
2021/07/21 05:33:20;;;;;;;10.38;3.80;;;24.20;91.40;;;;;;5033452;28;20051;-75
2021/07/21 05:35:46;;;;;;;11.32;4.15;;;24.20;91.70;;;;;;5034037;28;20048;-75
2021/07/21 05:38:12;;;;;;;6.57;3.97;;;24.10;91.80;;;;;;5052549;28;20112;-75
2021/07/21 05:40:38;;;;;;;5.70;3.67;;;24.20;92.10;;;;;;5052487;28;20017;-75
2021/07/21 05:43:05;;;;;;;10.48;4.20;;;24.20;92.00;;;;;;5052180;28;20100;-76
2021/07/21 05:45:31;;;;;;;6.03;4.35;;;24.20;91.90;;;;;;5052008;28;20024;-75
2021/07/21 05:47:57;;;;;;;8.38;4.43;;;24.20;91.70;;;;;;5052372;28;20043;-75
2021/07/21 05:50:23;;;;;;;7.47;3.47;;;24.30;91.80;;;;;;5034509;28;20070;-74
2021/07/21 05:52:49;;;;;;;6.63;4.20;;;24.40;92.00;;;;;;5052310;28;20021;-74
2021/07/21 05:55:15;;;;;;;5.43;3.72;;;24.40;92.20;;;;;;5052429;28;20024;-75
2021/07/21 05:57:44;;;;;;;13.13;3.80;;;24.50;92.50;;;;;;5052183;28;20033;-77
2021/07/21 06:00:11;;;;;;;6.55;3.65;;;24.50;91.90;;;;;;5034254;28;20036;-74
2021/07/21 06:02:39;;;;;;;6.10;4.05;;;24.60;91.70;;;;;;5055569;28;20062;-77
2021/07/21 06:05:06;;;;;;;4.63;3.83;;;24.60;91.70;;;;;;5045126;28;20029;-74
2021/07/21 06:07:32;;;;;;;8.05;4.47;;;24.70;91.80;;;;;;5060017;28;20036;-74
2021/07/21 06:09:58;;;;;;;7.97;4.03;;;24.80;91.70;;;;;;5057470;28;20025;-74
2021/07/21 06:12:24;;;;;;;4.97;3.40;;;24.80;91.60;;;;;;5057155;28;20093;-74
2021/07/21 06:14:50;;;;;;;9.25;3.88;;;24.90;91.50;;;;;;5063720;28;20460;-74
2021/07/21 06:17:17;;;;;;;7.82;3.97;;;25.00;91.60;;;;;;5061090;28;20025;-74
2021/07/21 06:19:43;;;;;;;7.40;4.50;;;25.00;91.70;;;;;;5055827;28;20422;-74
2021/07/21 06:22:09;;;;;;;7.20;4.05;;;25.10;91.50;;;;;;5055260;28;20021;-74
2021/07/21 06:24:40;;;;;;;5.43;3.65;;;25.10;91.50;;;;;;5056129;28;20061;-74
2021/07/21 06:27:06;;;;;;;7.00;3.47;;;25.20;91.70;;;;;;5036192;28;20120;-74
2021/07/21 06:29:32;;;;;;;4.63;3.25;;;25.20;91.30;;;;;;5035852;28;20104;-74
2021/07/21 06:31:57;;;;;;;4.65;3.75;;;25.30;91.20;;;;;;5034386;28;20026;-74
2021/07/21 06:34:23;;;;;;;5.57;3.95;;;25.30;91.50;;;;;;5052823;28;20453;-74
2021/07/21 06:36:49;;;;;;;6.97;4.03;;;25.40;91.50;;;;;;5056705;28;20028;-74
2021/07/21 06:39:15;;;;;;;6.53;4.13;;;25.40;91.50;;;;;;5054745;28;20032;-74
2021/07/21 06:41:41;;;;;;;5.10;4.18;;;25.40;92.00;;;;;;5036618;28;20026;-74
2021/07/21 06:44:07;;;;;;;14.90;4.15;;;25.40;90.90;;;;;;5034071;28;20061;-74
2021/07/21 06:46:32;;;;;;;12.40;4.88;;;25.50;90.60;;;;;;5057269;28;20039;-74
2021/07/21 06:48:59;;;;;;;5.55;4.35;;;25.50;91.00;;;;;;5066109;28;20020;-74
2021/07/21 06:51:25;;;;;;;5.57;3.85;;;25.50;90.40;;;;;;5064758;28;20017;-75
2021/07/21 06:53:51;;;;;;;9.30;3.50;;;25.60;90.20;;;;;;5066629;28;20437;-75
2021/07/21 06:56:17;;;;;;;11.50;4.20;;;25.60;90.00;;;;;;5054650;28;20104;-75
2021/07/21 06:58:43;;;;;;;6.70;4.07;;;25.70;90.00;;;;;;5046923;28;20043;-75
2021/07/21 07:01:09;;;;;;;4.00;3.60;;;25.80;91.10;;;;;;5047942;28;20097;-75
2021/07/21 07:03:36;;;;;;;5.93;3.60;;;25.70;91.80;;;;;;5036362;28;20028;-74
2021/07/21 07:06:16;;;;;;;7.55;4.05;;;25.80;91.60;;;;;;5024231;28;20043;-74
2021/07/21 07:08:42;;;;;;;5.85;3.83;;;25.80;90.80;;;;;;5050955;28;20566;-74
2021/07/21 07:11:09;;;;;;;4.13;3.55;;;25.80;91.50;;;;;;5054084;28;20112;-74
2021/07/21 07:13:36;;;;;;;7.88;3.85;;;25.90;91.90;;;;;;5055527;28;20040;-74
2021/07/21 07:16:02;;;;;;;5.40;3.95;;;26.00;92.40;;;;;;5036681;28;20025;-74
2021/07/21 07:18:28;;;;;;;5.97;3.70;;;26.00;91.50;;;;;;5056401;28;20103;-74
2021/07/21 07:20:54;;;;;;;8.10;3.80;;;26.00;91.60;;;;;;5037055;28;20034;-74
2021/07/21 07:23:20;;;;;;;6.38;4.20;;;26.00;90.90;;;;;;5052298;28;20022;-73
2021/07/21 07:25:46;;;;;;;4.60;3.42;;;26.10;88.30;;;;;;5052768;28;20044;-74
2021/07/21 07:28:12;;;;;;;7.60;3.92;;;26.10;88.20;;;;;;5054050;28;20037;-74
2021/07/21 07:30:38;;;;;;;7.05;3.75;;;26.20;89.80;;;;;;5052085;28;20552;-74
2021/07/21 07:33:04;;;;;;;4.22;3.83;;;26.30;89.50;;;;;;5054760;28;20061;-74
2021/07/21 07:35:29;;;;;;;5.72;4.10;;;26.40;89.80;;;;;;5058702;28;20051;-74
2021/07/21 07:37:55;;;;;;;10.55;4.70;;;26.50;90.60;;;;;;5055336;28;20029;-73
2021/07/21 07:40:21;;;;;;;5.60;3.70;;;26.60;89.90;;;;;;5061753;28;20044;-74
2021/07/21 07:42:47;;;;;;;6.32;3.60;;;26.60;86.90;;;;;;5051714;28;20038;-73
2021/07/21 07:45:14;;;;;;;8.75;4.22;;;26.60;87.10;;;;;;5052924;28;20480;-73
2021/07/21 07:47:39;;;;;;;7.47;3.83;;;26.80;87.00;;;;;;5041906;28;20032;-74
2021/07/21 07:50:08;;;;;;;11.45;4.05;;;26.80;86.90;;;;;;5054516;28;20014;-74
2021/07/21 07:52:35;;;;;;;6.13;3.88;;;26.80;85.80;;;;;;5062465;28;20176;-74
2021/07/21 07:55:02;;;;;;;6.95;4.00;;;27.00;83.70;;;;;;5039875;28;20388;-74
2021/07/21 07:57:29;;;;;;;5.43;4.15;;;26.90;86.20;;;;;;5055060;28;20033;-74
2021/07/21 07:59:54;;;;;;;5.22;3.80;;;26.80;83.60;;;;;;5056071;28;20028;-75
2021/07/21 08:02:20;;;;;;;22.17;7.13;;;26.80;84.50;;;;;;5060722;28;20021;-74
2021/07/21 08:04:46;;;;;;;6.20;4.47;;;26.70;84.80;;;;;;5055350;28;20035;-74
2021/07/21 08:07:12;;;;;;;7.32;4.55;;;26.70;84.90;;;;;;5055432;28;20055;-73
2021/07/21 08:09:37;;;;;;;5.88;3.45;;;26.80;84.10;;;;;;5064370;28;20062;-74
2021/07/21 08:12:04;;;;;;;6.38;4.03;;;26.80;82.20;;;;;;5057268;28;20108;-74
2021/07/21 08:14:30;;;;;;;4.28;3.88;;;26.80;82.90;;;;;;5059153;28;20025;-74
2021/07/21 08:16:56;;;;;;;9.98;4.28;;;26.80;83.20;;;;;;5053068;28;20028;-74
2021/07/21 08:19:23;;;;;;;10.88;3.60;;;26.90;81.70;;;;;;5045064;28;20025;-74
2021/07/21 08:21:50;;;;;;;7.05;4.30;;;27.00;81.50;;;;;;5057162;28;20106;-74
2021/07/21 08:24:16;;;;;;;17.73;5.13;;;26.90;84.40;;;;;;5059306;28;20108;-74
2021/07/21 08:26:43;;;;;;;7.65;4.30;;;26.90;82.40;;;;;;5054124;28;20033;-74
2021/07/21 08:29:09;;;;;;;7.05;3.78;;;26.90;82.00;;;;;;5060900;28;20067;-74
2021/07/21 08:31:35;;;;;;;9.68;4.10;;;26.90;83.20;;;;;;5052590;28;20032;-74
2021/07/21 08:34:02;;;;;;;7.07;3.63;;;26.90;80.50;;;;;;5054782;28;20052;-74
2021/07/21 08:36:32;;;;;;;6.60;3.22;;;26.90;77.90;;;;;;5052125;28;20075;-74
2021/07/21 08:38:58;;;;;;;5.65;3.83;;;27.00;78.50;;;;;;5047759;28;20052;-74
2021/07/21 08:41:26;;;;;;;4.47;3.42;;;27.00;79.80;;;;;;5060523;28;20083;-74
2021/07/21 08:43:53;;;;;;;5.43;2.80;;;27.00;80.20;;;;;;5056636;28;20020;-74
2021/07/21 08:46:19;;;;;;;6.45;3.22;;;27.10;81.20;;;;;;5065029;28;20028;-74
2021/07/21 08:48:45;;;;;;;5.22;3.30;;;27.10;80.20;;;;;;5059498;28;20052;-74
2021/07/21 08:51:12;;;;;;;5.43;3.45;;;27.20;77.70;;;;;;5057981;28;20104;-74
2021/07/21 08:53:38;;;;;;;4.35;3.65;;;27.30;76.50;;;;;;5055196;28;20433;-74
2021/07/21 08:56:05;;;;;;;6.35;3.00;;;27.50;74.40;;;;;;5054036;28;20112;-75
2021/07/21 08:58:31;;;;;;;5.70;3.47;;;27.40;74.20;;;;;;5052720;28;20099;-74
2021/07/21 09:00:57;;;;;;;8.23;3.10;;;27.40;76.70;;;;;;5062134;28;20005;-74
2021/07/21 09:03:23;;;;;;;6.38;2.67;;;27.40;77.50;;;;;;5059566;28;20017;-74
2021/07/21 09:05:53;;;;;;;4.85;3.58;;;27.50;75.60;;;;;;5054539;28;20025;-75
2021/07/21 09:08:20;;;;;;;5.85;3.03;;;27.50;75.50;;;;;;5051835;28;20476;-75
2021/07/21 09:10:47;;;;;;;11.63;3.70;;;27.60;76.60;;;;;;5065873;28;20025;-75
2021/07/21 09:13:14;;;;;;;4.40;3.42;;;27.60;78.50;;;;;;5054159;28;20083;-75
2021/07/21 09:15:44;;;;;;;7.32;3.30;;;27.60;76.90;;;;;;5040952;28;20017;-75
2021/07/21 09:18:12;;;;;;;6.22;3.00;;;27.70;72.20;;;;;;5033824;28;20027;-75
2021/07/21 09:20:47;;;;;;;5.05;2.72;;;27.70;73.20;;;;;;5060367;28;20097;-74
2021/07/21 09:23:13;;;;;;;9.90;4.25;;;27.60;70.80;;;;;;5054359;28;20040;-75
2021/07/21 09:25:41;;;;;;;5.53;3.08;;;27.60;71.70;;;;;;5060181;28;20043;-75
2021/07/21 09:28:09;;;;;;;6.63;3.75;;;27.70;72.10;;;;;;5041775;28;20476;-74
2021/07/21 09:30:39;;;;;;;5.18;3.05;;;27.70;73.70;;;;;;5057392;28;20072;-74
2021/07/21 09:33:08;;;;;;;5.53;3.47;;;27.70;73.90;;;;;;5057650;28;20472;-74
2021/07/21 09:35:37;;;;;;;4.50;3.25;;;27.80;72.50;;;;;;5061032;28;20475;-74
2021/07/21 09:38:16;;;;;;;5.93;3.25;;;27.90;72.90;;;;;;5058101;28;20033;-74
2021/07/21 09:40:54;;;;;;;4.68;3.65;;;27.90;72.10;;;;;;5051279;28;20053;-74
2021/07/21 09:43:23;;;;;;;7.03;3.22;;;27.90;73.80;;;;;;5054341;28;20513;-74
2021/07/21 09:45:49;;;;;;;4.35;3.17;;;28.00;74.80;;;;;;5056833;28;20489;-74
2021/07/21 09:48:18;;;;;;;6.72;3.28;;;28.00;73.70;;;;;;5040976;28;20346;-74
2021/07/21 09:50:47;;;;;;;5.18;2.88;;;28.00;74.80;;;;;;5055740;28;20029;-75
2021/07/21 09:53:14;;;;;;;6.35;3.08;;;28.00;74.10;;;;;;5060981;28;20028;-74
2021/07/21 09:55:45;;;;;;;6.68;3.85;;;28.00;74.30;;;;;;5041784;28;20076;-75
2021/07/21 09:58:12;;;;;;;7.35;3.13;;;28.10;76.40;;;;;;5063179;28;20040;-74
2021/07/21 10:00:42;;;;;;;4.28;2.85;;;28.20;76.20;;;;;;5036543;28;20033;-74
2021/07/21 10:03:15;;;;;;;11.05;3.50;;;28.20;73.90;;;;;;5054001;28;20495;-74
2021/07/21 10:06:00;;;;;;;5.47;3.25;;;28.20;74.40;;;;;;5049338;28;20017;-74
2021/07/21 10:08:28;;;;;;;9.00;3.97;;;28.20;72.10;;;;;;5061998;28;20064;-74
2021/07/21 10:10:54;;;;;;;5.57;3.30;;;28.30;74.20;;;;;;5059926;28;20040;-74
2021/07/21 10:13:20;;;;;;;5.57;3.33;;;28.30;72.40;;;;;;5050220;28;20028;-75
2021/07/21 10:15:47;;;;;;;7.65;2.92;;;28.30;71.50;;;;;;5057943;28;20066;-75
2021/07/21 10:18:16;;;;;;;4.25;3.55;;;28.40;73.20;;;;;;5055107;28;20033;-74
2021/07/21 10:20:43;;;;;;;7.93;2.90;;;28.40;71.30;;;;;;5036748;28;20052;-74
2021/07/21 10:23:12;;;;;;;3.80;3.33;;;28.50;70.00;;;;;;5060938;28;20495;-74
2021/07/21 10:25:38;;;;;;;6.30;3.42;;;28.50;68.80;;;;;;5056646;28;20020;-74
2021/07/21 10:28:05;;;;;;;6.10;3.53;;;28.50;70.10;;;;;;5039462;28;20035;-75
2021/07/21 10:30:33;;;;;;;5.32;3.15;;;28.60;68.80;;;;;;5053537;28;20106;-74
2021/07/21 10:32:59;;;;;;;5.00;3.30;;;28.70;70.70;;;;;;5035161;28;20151;-74
2021/07/21 10:35:29;;;;;;;4.40;3.08;;;28.80;70.80;;;;;;5034867;28;20373;-75
2021/07/21 10:37:55;;;;;;;6.95;3.30;;;28.80;71.40;;;;;;5052157;28;20032;-74
2021/07/21 10:40:23;;;;;;;4.50;3.15;;;28.80;70.40;;;;;;5053123;28;20507;-74
2021/07/21 10:42:57;;;;;;;3.63;2.63;;;29.10;69.80;;;;;;5067402;28;20058;-74
2021/07/21 10:45:27;;;;;;;5.50;3.67;;;29.10;69.30;;;;;;5049396;28;20056;-75
2021/07/21 10:48:01;;;;;;;7.32;3.45;;;29.10;70.10;;;;;;5033965;28;20056;-75
2021/07/21 10:51:18;;;;;;;5.00;2.65;;;29.20;69.50;;;;;;5052366;28;20017;-74
2021/07/21 10:54:12;;;;;;;6.65;3.33;;;29.20;69.00;;;;;;5047076;28;20044;-74
2021/07/21 10:59:18;;;;;;;9.60;2.92;;;29.30;70.50;;;;;;5046636;28;20087;-74
2021/07/21 11:01:48;;;;;;;8.27;3.05;;;29.40;66.30;;;;;;5039303;28;20487;-74
2021/07/21 11:04:14;;;;;;;6.88;3.10;;;29.50;70.10;;;;;;5053399;28;20025;-74
2021/07/21 11:06:41;;;;;;;3.83;2.95;;;29.50;69.90;;;;;;5058378;28;20021;-74
2021/07/21 11:09:24;;;;;;;5.70;2.85;;;29.60;71.00;;;;;;5060413;28;20432;-74
2021/07/21 11:11:54;;;;;;;3.20;2.95;;;29.60;70.20;;;;;;5052858;28;20017;-75
2021/07/21 11:14:28;;;;;;;6.38;3.15;;;29.60;68.80;;;;;;5052452;28;20021;-74
2021/07/21 11:17:08;;;;;;;7.90;4.15;;;29.60;70.90;;;;;;5057137;28;20029;-74
2021/07/21 11:19:49;;;;;;;7.03;3.67;;;29.70;70.90;;;;;;5058260;28;20036;-75
2021/07/21 11:22:18;;;;;;;5.90;4.35;;;29.70;72.60;;;;;;5053299;28;20036;-74
2021/07/21 11:25:23;;;;;;;8.68;3.30;;;29.80;70.20;;;;;;5052919;28;20480;-75
2021/07/21 11:28:02;;;;;;;10.27;3.20;;;29.90;68.70;;;;;;5043900;28;20028;-74
2021/07/21 11:30:33;;;;;;;6.70;3.78;;;29.90;68.00;;;;;;5037276;28;20025;-75
2021/07/21 11:33:22;;;;;;;;;;;29.90;68.70;;;;;;5054025;28;20023;-75
2021/07/21 11:35:50;;;;;;;4.13;3.50;;;29.90;68.70;;;;;;5023922;28;19951;-75
2021/07/21 11:38:40;;;;;;;4.15;3.70;;;29.90;71.30;;;;;;5034016;28;20037;-75
2021/07/21 11:41:06;;;;;;;3.85;3.53;;;30.00;69.50;;;;;;5033333;28;20037;-75
2021/07/21 11:43:33;;;;;;;9.98;3.92;;;30.10;72.20;;;;;;5034661;28;20071;-75
2021/07/21 11:46:07;;;;;;;4.97;3.30;;;30.20;70.10;;;;;;5052548;28;20063;-75
2021/07/21 11:48:34;;;;;;;6.10;4.15;;;30.20;67.80;;;;;;5033580;28;20102;-75
2021/07/21 11:51:00;;;;;;;8.20;3.90;;;30.20;69.70;;;;;;5053484;28;20024;-75
2021/07/21 11:53:26;;;;;;;6.50;3.55;;;30.20;67.30;;;;;;5050761;28;20029;-74
2021/07/21 11:55:52;;;;;;;8.80;4.10;;;30.30;68.50;;;;;;5057416;28;20025;-75
2021/07/21 11:58:17;;;;;;;4.50;3.75;;;30.40;68.10;;;;;;5039509;28;20384;-75
2021/07/21 12:00:48;;;;;;;7.65;3.42;;;30.50;70.10;;;;;;5056707;28;20104;-75
2021/07/21 12:03:14;;;;;;;6.47;3.47;;;30.60;69.60;;;;;;5052680;28;20081;-75
2021/07/21 12:05:53;;;;;;;6.10;3.08;;;30.70;68.60;;;;;;5062403;28;20033;-75
2021/07/21 12:08:19;;;;;;;6.68;4.65;;;30.80;65.10;;;;;;5058057;28;20029;-75
2021/07/21 12:10:45;;;;;;;5.85;4.10;;;30.80;66.20;;;;;;5052502;28;20402;-75
2021/07/21 12:13:12;;;;;;;10.80;4.45;;;30.80;67.60;;;;;;5051748;28;20021;-75
2021/07/21 12:15:39;;;;;;;4.72;4.18;;;30.90;66.60;;;;;;5060658;28;20537;-75
2021/07/21 12:18:15;;;;;;;7.60;4.50;;;30.90;66.00;;;;;;5039731;28;20024;-74
2021/07/21 12:20:43;;;;;;;7.45;4.50;;;31.00;69.00;;;;;;5042393;28;20049;-75
2021/07/21 12:23:10;;;;;;;9.25;4.07;;;31.00;65.60;;;;;;5052143;28;20029;-75
2021/07/21 12:25:35;;;;;;;5.72;4.20;;;31.10;67.20;;;;;;5056425;28;20032;-74
2021/07/21 12:28:04;;;;;;;6.35;4.47;;;31.10;67.10;;;;;;5051427;28;20495;-75
2021/07/21 12:30:36;;;;;;;8.70;4.40;;;31.10;67.20;;;;;;5054542;28;20053;-74
2021/07/21 12:33:02;;;;;;;6.75;3.97;;;31.10;68.30;;;;;;5058752;28;20633;-75
2021/07/21 12:35:29;;;;;;;7.60;4.20;;;31.30;69.00;;;;;;5053775;28;20684;-75
2021/07/21 12:37:58;;;;;;;9.68;4.07;;;31.40;67.60;;;;;;5029988;28;20032;-74
2021/07/21 12:40:27;;;;;;;4.38;3.78;;;31.40;66.10;;;;;;5058408;28;20025;-75
2021/07/21 12:42:55;;;;;;;5.97;3.83;;;31.30;66.20;;;;;;5047555;28;20025;-75
2021/07/21 12:45:25;;;;;;;5.68;4.60;;;31.40;67.30;;;;;;5053250;28;20037;-74
2021/07/21 12:47:53;;;;;;;10.32;4.60;;;31.50;67.40;;;;;;5051626;28;20040;-75
2021/07/21 12:50:25;;;;;;;6.47;3.70;;;31.60;69.30;;;;;;5056436;28;20020;-75
2021/07/21 12:52:59;;;;;;;5.72;4.47;;;31.70;68.90;;;;;;5063563;28;20182;-75
2021/07/21 12:55:38;;;;;;;4.90;4.43;;;31.80;68.60;;;;;;5059574;28;20715;-75
2021/07/21 12:58:06;;;;;;;6.30;4.63;;;31.60;65.70;;;;;;5047503;28;20025;-74